sensor_id;sensor_type;location;lat;lon;timestamp;pressure;altitude;pressure_sealevel;temperature
45850;BMP180;10739;52.198;20.908;2024-01-15T00:01:45;98102.00;;;3.70
45850;BMP180;10739;52.198;20.908;2024-01-15T00:04:17;98112.00;;;3.60
45850;BMP180;10739;52.198;20.908;2024-01-15T00:06:54;98104.00;;;3.60
45850;BMP180;10739;52.198;20.908;2024-01-15T00:09:20;98089.00;;;3.70
45850;BMP180;10739;52.198;20.908;2024-01-15T00:11:47;98093.00;;;3.50
45850;BMP180;10739;52.198;20.908;2024-01-15T00:14:13;98082.00;;;3.70
45850;BMP180;10739;52.198;20.908;2024-01-15T00:16:41;98079.00;;;3.60
45850;BMP180;10739;52.198;20.908;2024-01-15T00:19:07;98070.00;;;3.60
45850;BMP180;10739;52.198;20.908;2024-01-15T00:21:33;98070.00;;;3.50
45850;BMP180;10739;52.198;20.908;2024-01-15T00:24:00;98064.00;;;3.80
45850;BMP180;10739;52.198;20.908;2024-01-15T00:26:26;98056.00;;;3.80
45850;BMP180;10739;52.198;20.908;2024-01-15T00:28:53;98047.00;;;3.70
45850;BMP180;10739;52.198;20.908;2024-01-15T00:31:19;98045.00;;;3.60
45850;BMP180;10739;52.198;20.908;2024-01-15T00:33:46;98047.00;;;3.70
45850;BMP180;10739;52.198;20.908;2024-01-15T00:36:12;98046.00;;;3.70
45850;BMP180;10739;52.198;20.908;2024-01-15T00:38:40;98048.00;;;3.60
45850;BMP180;10739;52.198;20.908;2024-01-15T00:41:06;98032.00;;;3.60
45850;BMP180;10739;52.198;20.908;2024-01-15T00:43:33;98032.00;;;3.70
45850;BMP180;10739;52.198;20.908;2024-01-15T00:46:02;98026.00;;;3.60
45850;BMP180;10739;52.198;20.908;2024-01-15T00:48:29;98031.00;;;3.30
45850;BMP180;10739;52.198;20.908;2024-01-15T00:50:55;98026.00;;;3.60
45850;BMP180;10739;52.198;20.908;2024-01-15T00:53:22;98028.00;;;3.50
45850;BMP180;10739;52.198;20.908;2024-01-15T00:55:51;98027.00;;;3.50
45850;BMP180;10739;52.198;20.908;2024-01-15T00:58:18;98027.00;;;3.50
45850;BMP180;10739;52.198;20.908;2024-01-15T01:00:44;98009.00;;;3.40
45850;BMP180;10739;52.198;20.908;2024-01-15T01:03:11;98018.00;;;3.40
45850;BMP180;10739;52.198;20.908;2024-01-15T01:05:38;98004.00;;;3.50
45850;BMP180;10739;52.198;20.908;2024-01-15T01:08:04;98000.00;;;3.30
45850;BMP180;10739;52.198;20.908;2024-01-15T01:10:31;98004.00;;;3.20
45850;BMP180;10739;52.198;20.908;2024-01-15T01:12:57;97995.00;;;3.40
45850;BMP180;10739;52.198;20.908;2024-01-15T01:15:23;98004.00;;;3.50
45850;BMP180;10739;52.198;20.908;2024-01-15T01:17:50;98008.00;;;3.30
45850;BMP180;10739;52.198;20.908;2024-01-15T01:20:16;97997.00;;;3.20
45850;BMP180;10739;52.198;20.908;2024-01-15T01:22:43;98000.00;;;3.40
45850;BMP180;10739;52.198;20.908;2024-01-15T01:25:09;97991.00;;;3.20
45850;BMP180;10739;52.198;20.908;2024-01-15T01:27:36;97986.00;;;3.40
45850;BMP180;10739;52.198;20.908;2024-01-15T01:30:02;97986.00;;;3.10
45850;BMP180;10739;52.198;20.908;2024-01-15T01:32:29;97986.00;;;3.40
45850;BMP180;10739;52.198;20.908;2024-01-15T01:34:55;97985.00;;;3.60
45850;BMP180;10739;52.198;20.908;2024-01-15T01:37:21;97982.00;;;3.40
45850;BMP180;10739;52.198;20.908;2024-01-15T01:39:48;97969.00;;;3.40
45850;BMP180;10739;52.198;20.908;2024-01-15T01:42:15;97977.00;;;3.50
45850;BMP180;10739;52.198;20.908;2024-01-15T01:44:41;97974.00;;;3.40
45850;BMP180;10739;52.198;20.908;2024-01-15T01:47:08;97962.00;;;3.20
45850;BMP180;10739;52.198;20.908;2024-01-15T01:49:35;97951.00;;;3.40
45850;BMP180;10739;52.198;20.908;2024-01-15T01:52:06;97952.00;;;3.50
45850;BMP180;10739;52.198;20.908;2024-01-15T01:54:35;97952.00;;;3.30
45850;BMP180;10739;52.198;20.908;2024-01-15T01:57:03;97942.00;;;3.20
45850;BMP180;10739;52.198;20.908;2024-01-15T01:59:32;97950.00;;;3.60
45850;BMP180;10739;52.198;20.908;2024-01-15T02:02:02;97954.00;;;3.30
45850;BMP180;10739;52.198;20.908;2024-01-15T02:04:31;97943.00;;;3.60
45850;BMP180;10739;52.198;20.908;2024-01-15T02:06:59;97943.00;;;3.60
45850;BMP180;10739;52.198;20.908;2024-01-15T02:09:25;97941.00;;;3.50
45850;BMP180;10739;52.198;20.908;2024-01-15T02:11:52;97940.00;;;3.60
45850;BMP180;10739;52.198;20.908;2024-01-15T02:14:18;97938.00;;;3.50
45850;BMP180;10739;52.198;20.908;2024-01-15T02:16:45;97931.00;;;3.50
45850;BMP180;10739;52.198;20.908;2024-01-15T02:19:18;97928.00;;;3.30
45850;BMP180;10739;52.198;20.908;2024-01-15T02:21:44;97920.00;;;3.60
45850;BMP180;10739;52.198;20.908;2024-01-15T02:24:11;97926.00;;;3.50
45850;BMP180;10739;52.198;20.908;2024-01-15T02:26:38;97903.00;;;3.60
45850;BMP180;10739;52.198;20.908;2024-01-15T02:29:07;97915.00;;;3.50
45850;BMP180;10739;52.198;20.908;2024-01-15T02:31:38;97903.00;;;3.50
45850;BMP180;10739;52.198;20.908;2024-01-15T02:34:05;97901.00;;;3.60
45850;BMP180;10739;52.198;20.908;2024-01-15T02:36:31;97900.00;;;3.50
45850;BMP180;10739;52.198;20.908;2024-01-15T02:38:58;97901.00;;;3.30
45850;BMP180;10739;52.198;20.908;2024-01-15T02:41:24;97892.00;;;3.40
45850;BMP180;10739;52.198;20.908;2024-01-15T02:43:50;97893.00;;;3.50
45850;BMP180;10739;52.198;20.908;2024-01-15T02:46:17;97890.00;;;3.50
45850;BMP180;10739;52.198;20.908;2024-01-15T02:48:43;97890.00;;;3.40
45850;BMP180;10739;52.198;20.908;2024-01-15T02:51:09;97881.00;;;3.60
45850;BMP180;10739;52.198;20.908;2024-01-15T02:53:37;97880.00;;;3.80
45850;BMP180;10739;52.198;20.908;2024-01-15T02:56:03;97886.00;;;3.50
45850;BMP180;10739;52.198;20.908;2024-01-15T02:58:30;97863.00;;;3.40
45850;BMP180;10739;52.198;20.908;2024-01-15T03:00:57;97856.00;;;3.50
45850;BMP180;10739;52.198;20.908;2024-01-15T03:03:23;97841.00;;;3.70
45850;BMP180;10739;52.198;20.908;2024-01-15T03:05:50;97838.00;;;3.70
45850;BMP180;10739;52.198;20.908;2024-01-15T03:08:16;97854.00;;;3.20
45850;BMP180;10739;52.198;20.908;2024-01-15T03:10:43;97844.00;;;3.30
45850;BMP180;10739;52.198;20.908;2024-01-15T03:13:09;97839.00;;;3.20
45850;BMP180;10739;52.198;20.908;2024-01-15T03:15:35;97831.00;;;3.10
45850;BMP180;10739;52.198;20.908;2024-01-15T03:18:02;97831.00;;;3.00
45850;BMP180;10739;52.198;20.908;2024-01-15T03:20:28;97830.00;;;3.00
45850;BMP180;10739;52.198;20.908;2024-01-15T03:22:54;97821.00;;;3.30
45850;BMP180;10739;52.198;20.908;2024-01-15T03:25:21;97825.00;;;3.10
45850;BMP180;10739;52.198;20.908;2024-01-15T03:27:47;97818.00;;;3.30
45850;BMP180;10739;52.198;20.908;2024-01-15T03:30:14;97812.00;;;3.00
45850;BMP180;10739;52.198;20.908;2024-01-15T03:32:40;97827.00;;;3.10
45850;BMP180;10739;52.198;20.908;2024-01-15T03:35:07;97809.00;;;3.30
45850;BMP180;10739;52.198;20.908;2024-01-15T03:37:33;97800.00;;;3.30
45850;BMP180;10739;52.198;20.908;2024-01-15T03:40:00;97808.00;;;3.20
45850;BMP180;10739;52.198;20.908;2024-01-15T03:42:26;97809.00;;;3.00
45850;BMP180;10739;52.198;20.908;2024-01-15T03:44:53;97806.00;;;3.10
45850;BMP180;10739;52.198;20.908;2024-01-15T03:47:19;97807.00;;;3.00
45850;BMP180;10739;52.198;20.908;2024-01-15T03:49:45;97795.00;;;3.30
45850;BMP180;10739;52.198;20.908;2024-01-15T03:52:12;97790.00;;;3.20
45850;BMP180;10739;52.198;20.908;2024-01-15T03:54:38;97798.00;;;3.00
45850;BMP180;10739;52.198;20.908;2024-01-15T03:57:04;97778.00;;;3.10
45850;BMP180;10739;52.198;20.908;2024-01-15T03:59:31;97774.00;;;3.00
45850;BMP180;10739;52.198;20.908;2024-01-15T04:01:57;97768.00;;;3.30
45850;BMP180;10739;52.198;20.908;2024-01-15T04:04:23;97773.00;;;3.30
45850;BMP180;10739;52.198;20.908;2024-01-15T04:06:50;97781.00;;;3.10
45850;BMP180;10739;52.198;20.908;2024-01-15T04:09:16;97773.00;;;3.40
45850;BMP180;10739;52.198;20.908;2024-01-15T04:11:43;97755.00;;;3.10
45850;BMP180;10739;52.198;20.908;2024-01-15T04:14:09;97749.00;;;3.20
45850;BMP180;10739;52.198;20.908;2024-01-15T04:16:37;97754.00;;;3.20
45850;BMP180;10739;52.198;20.908;2024-01-15T04:19:03;97743.00;;;3.10
45850;BMP180;10739;52.198;20.908;2024-01-15T04:21:30;97730.00;;;3.20
45850;BMP180;10739;52.198;20.908;2024-01-15T04:23:56;97729.00;;;3.30
45850;BMP180;10739;52.198;20.908;2024-01-15T04:26:22;97727.00;;;3.10
45850;BMP180;10739;52.198;20.908;2024-01-15T04:28:49;97737.00;;;2.90
45850;BMP180;10739;52.198;20.908;2024-01-15T04:31:24;97720.00;;;3.00
45850;BMP180;10739;52.198;20.908;2024-01-15T04:33:51;97714.00;;;3.20
45850;BMP180;10739;52.198;20.908;2024-01-15T04:36:17;97703.00;;;3.10
45850;BMP180;10739;52.198;20.908;2024-01-15T04:38:43;97710.00;;;3.30
45850;BMP180;10739;52.198;20.908;2024-01-15T04:41:12;97700.00;;;3.20
45850;BMP180;10739;52.198;20.908;2024-01-15T04:43:39;97697.00;;;3.10
45850;BMP180;10739;52.198;20.908;2024-01-15T04:46:06;97709.00;;;3.30
45850;BMP180;10739;52.198;20.908;2024-01-15T04:48:33;97701.00;;;3.50
45850;BMP180;10739;52.198;20.908;2024-01-15T04:51:00;97705.00;;;3.40
45850;BMP180;10739;52.198;20.908;2024-01-15T04:53:26;97697.00;;;3.10
45850;BMP180;10739;52.198;20.908;2024-01-15T04:55:52;97694.00;;;3.30
45850;BMP180;10739;52.198;20.908;2024-01-15T04:58:19;97700.00;;;3.30
45850;BMP180;10739;52.198;20.908;2024-01-15T05:00:45;97695.00;;;3.30
45850;BMP180;10739;52.198;20.908;2024-01-15T05:03:11;97699.00;;;3.20
45850;BMP180;10739;52.198;20.908;2024-01-15T05:05:38;97689.00;;;3.30
45850;BMP180;10739;52.198;20.908;2024-01-15T05:08:07;97686.00;;;3.50
45850;BMP180;10739;52.198;20.908;2024-01-15T05:10:33;97685.00;;;3.00
45850;BMP180;10739;52.198;20.908;2024-01-15T05:12:59;97675.00;;;3.40
45850;BMP180;10739;52.198;20.908;2024-01-15T05:15:26;97684.00;;;3.40
45850;BMP180;10739;52.198;20.908;2024-01-15T05:17:52;97677.00;;;3.60
45850;BMP180;10739;52.198;20.908;2024-01-15T05:20:18;97679.00;;;3.50
45850;BMP180;10739;52.198;20.908;2024-01-15T05:22:44;97677.00;;;3.30
45850;BMP180;10739;52.198;20.908;2024-01-15T05:25:11;97679.00;;;3.30
45850;BMP180;10739;52.198;20.908;2024-01-15T05:27:37;97667.00;;;3.00
45850;BMP180;10739;52.198;20.908;2024-01-15T05:30:07;97681.00;;;3.20
45850;BMP180;10739;52.198;20.908;2024-01-15T05:32:34;97678.00;;;3.40
45850;BMP180;10739;52.198;20.908;2024-01-15T05:35:00;97681.00;;;3.30
45850;BMP180;10739;52.198;20.908;2024-01-15T05:37:27;97673.00;;;3.40
45850;BMP180;10739;52.198;20.908;2024-01-15T05:39:53;97683.00;;;3.40
45850;BMP180;10739;52.198;20.908;2024-01-15T05:42:19;97677.00;;;3.40
45850;BMP180;10739;52.198;20.908;2024-01-15T05:44:46;97684.00;;;3.30
45850;BMP180;10739;52.198;20.908;2024-01-15T05:47:12;97681.00;;;3.40
45850;BMP180;10739;52.198;20.908;2024-01-15T05:49:38;97674.00;;;3.20
45850;BMP180;10739;52.198;20.908;2024-01-15T05:52:05;97681.00;;;3.20
45850;BMP180;10739;52.198;20.908;2024-01-15T05:54:32;97668.00;;;3.50
45850;BMP180;10739;52.198;20.908;2024-01-15T05:56:58;97675.00;;;3.20
45850;BMP180;10739;52.198;20.908;2024-01-15T05:59:25;97667.00;;;3.40
45850;BMP180;10739;52.198;20.908;2024-01-15T06:01:51;97665.00;;;3.10
45850;BMP180;10739;52.198;20.908;2024-01-15T06:04:17;97671.00;;;3.20
45850;BMP180;10739;52.198;20.908;2024-01-15T06:06:44;97654.00;;;3.20
45850;BMP180;10739;52.198;20.908;2024-01-15T06:09:10;97654.00;;;3.10
45850;BMP180;10739;52.198;20.908;2024-01-15T06:11:36;97648.00;;;3.00
45850;BMP180;10739;52.198;20.908;2024-01-15T06:14:03;97638.00;;;3.40
45850;BMP180;10739;52.198;20.908;2024-01-15T06:16:29;97653.00;;;3.40
45850;BMP180;10739;52.198;20.908;2024-01-15T06:18:56;97628.00;;;3.00
45850;BMP180;10739;52.198;20.908;2024-01-15T06:21:22;97645.00;;;3.20
45850;BMP180;10739;52.198;20.908;2024-01-15T06:23:48;97644.00;;;3.10
45850;BMP180;10739;52.198;20.908;2024-01-15T06:26:15;97633.00;;;3.30
45850;BMP180;10739;52.198;20.908;2024-01-15T06:28:41;97632.00;;;3.10
45850;BMP180;10739;52.198;20.908;2024-01-15T06:31:07;97636.00;;;3.20
45850;BMP180;10739;52.198;20.908;2024-01-15T06:33:34;97626.00;;;3.40
45850;BMP180;10739;52.198;20.908;2024-01-15T06:36:00;97630.00;;;3.20
45850;BMP180;10739;52.198;20.908;2024-01-15T06:38:27;97626.00;;;3.20
45850;BMP180;10739;52.198;20.908;2024-01-15T06:40:53;97619.00;;;3.20
45850;BMP180;10739;52.198;20.908;2024-01-15T06:43:19;97617.00;;;3.30
45850;BMP180;10739;52.198;20.908;2024-01-15T06:45:46;97622.00;;;3.30
45850;BMP180;10739;52.198;20.908;2024-01-15T06:48:12;97621.00;;;3.10
45850;BMP180;10739;52.198;20.908;2024-01-15T06:50:40;97619.00;;;3.10
45850;BMP180;10739;52.198;20.908;2024-01-15T06:53:07;97620.00;;;3.40
45850;BMP180;10739;52.198;20.908;2024-01-15T06:55:33;97619.00;;;3.30
45850;BMP180;10739;52.198;20.908;2024-01-15T06:57:59;97627.00;;;3.40
45850;BMP180;10739;52.198;20.908;2024-01-15T07:00:26;97621.00;;;3.40
45850;BMP180;10739;52.198;20.908;2024-01-15T07:02:53;97618.00;;;3.40
45850;BMP180;10739;52.198;20.908;2024-01-15T07:05:21;97627.00;;;3.40
45850;BMP180;10739;52.198;20.908;2024-01-15T07:07:47;97620.00;;;3.40
45850;BMP180;10739;52.198;20.908;2024-01-15T07:10:14;97635.00;;;3.10
45850;BMP180;10739;52.198;20.908;2024-01-15T07:12:42;97622.00;;;3.40
45850;BMP180;10739;52.198;20.908;2024-01-15T07:15:09;97632.00;;;3.20
45850;BMP180;10739;52.198;20.908;2024-01-15T07:17:36;97632.00;;;3.00
45850;BMP180;10739;52.198;20.908;2024-01-15T07:20:09;97636.00;;;3.00
45850;BMP180;10739;52.198;20.908;2024-01-15T07:22:38;97631.00;;;3.10
45850;BMP180;10739;52.198;20.908;2024-01-15T07:25:05;97631.00;;;3.40
45850;BMP180;10739;52.198;20.908;2024-01-15T07:27:32;97627.00;;;3.20
45850;BMP180;10739;52.198;20.908;2024-01-15T07:29:59;97634.00;;;3.10
45850;BMP180;10739;52.198;20.908;2024-01-15T07:32:25;97639.00;;;3.00
45850;BMP180;10739;52.198;20.908;2024-01-15T07:34:54;97625.00;;;3.20
45850;BMP180;10739;52.198;20.908;2024-01-15T07:37:20;97630.00;;;2.90
45850;BMP180;10739;52.198;20.908;2024-01-15T07:39:46;97649.00;;;3.00
45850;BMP180;10739;52.198;20.908;2024-01-15T07:42:13;97651.00;;;3.20
45850;BMP180;10739;52.198;20.908;2024-01-15T07:44:40;97640.00;;;3.50
45850;BMP180;10739;52.198;20.908;2024-01-15T07:47:06;97641.00;;;3.20
45850;BMP180;10739;52.198;20.908;2024-01-15T07:49:34;97642.00;;;3.30
45850;BMP180;10739;52.198;20.908;2024-01-15T07:52:02;97648.00;;;3.00
45850;BMP180;10739;52.198;20.908;2024-01-15T07:54:28;97639.00;;;3.30
45850;BMP180;10739;52.198;20.908;2024-01-15T07:56:57;97654.00;;;2.90
45850;BMP180;10739;52.198;20.908;2024-01-15T07:59:24;97639.00;;;3.20
45850;BMP180;10739;52.198;20.908;2024-01-15T08:01:51;97659.00;;;3.40
45850;BMP180;10739;52.198;20.908;2024-01-15T08:04:19;97650.00;;;3.00
45850;BMP180;10739;52.198;20.908;2024-01-15T08:06:46;97655.00;;;3.10
45850;BMP180;10739;52.198;20.908;2024-01-15T08:09:12;97650.00;;;3.00
45850;BMP180;10739;52.198;20.908;2024-01-15T08:11:45;97659.00;;;3.30
45850;BMP180;10739;52.198;20.908;2024-01-15T08:14:12;97652.00;;;3.30
45850;BMP180;10739;52.198;20.908;2024-01-15T08:16:39;97643.00;;;3.20
45850;BMP180;10739;52.198;20.908;2024-01-15T08:19:06;97654.00;;;3.30
45850;BMP180;10739;52.198;20.908;2024-01-15T08:21:33;97626.00;;;3.50
45850;BMP180;10739;52.198;20.908;2024-01-15T08:24:01;97641.00;;;3.20
45850;BMP180;10739;52.198;20.908;2024-01-15T08:26:31;97638.00;;;3.40
45850;BMP180;10739;52.198;20.908;2024-01-15T08:28:58;97635.00;;;3.30
45850;BMP180;10739;52.198;20.908;2024-01-15T08:31:25;97645.00;;;3.70
45850;BMP180;10739;52.198;20.908;2024-01-15T08:33:52;97637.00;;;3.30
45850;BMP180;10739;52.198;20.908;2024-01-15T08:36:22;97647.00;;;3.40
45850;BMP180;10739;52.198;20.908;2024-01-15T08:38:50;97643.00;;;3.70
45850;BMP180;10739;52.198;20.908;2024-01-15T08:41:18;97644.00;;;3.50
45850;BMP180;10739;52.198;20.908;2024-01-15T08:43:44;97643.00;;;3.70
45850;BMP180;10739;52.198;20.908;2024-01-15T08:46:11;97654.00;;;3.40
45850;BMP180;10739;52.198;20.908;2024-01-15T08:48:37;97653.00;;;3.50
45850;BMP180;10739;52.198;20.908;2024-01-15T08:51:04;97670.00;;;3.40
45850;BMP180;10739;52.198;20.908;2024-01-15T08:53:30;97661.00;;;3.20
45850;BMP180;10739;52.198;20.908;2024-01-15T08:55:56;97659.00;;;3.50
45850;BMP180;10739;52.198;20.908;2024-01-15T08:58:24;97667.00;;;3.30
45850;BMP180;10739;52.198;20.908;2024-01-15T09:00:51;97662.00;;;2.90
45850;BMP180;10739;52.198;20.908;2024-01-15T09:03:17;97658.00;;;3.10
45850;BMP180;10739;52.198;20.908;2024-01-15T09:05:44;97664.00;;;3.00
45850;BMP180;10739;52.198;20.908;2024-01-15T09:08:10;97655.00;;;3.40
45850;BMP180;10739;52.198;20.908;2024-01-15T09:10:36;97659.00;;;3.50
45850;BMP180;10739;52.198;20.908;2024-01-15T09:13:02;97664.00;;;3.50
45850;BMP180;10739;52.198;20.908;2024-01-15T09:15:30;97666.00;;;4.10
45850;BMP180;10739;52.198;20.908;2024-01-15T09:17:56;97651.00;;;4.30
45850;BMP180;10739;52.198;20.908;2024-01-15T09:20:25;97658.00;;;4.40
45850;BMP180;10739;52.198;20.908;2024-01-15T09:22:54;97646.00;;;4.10
45850;BMP180;10739;52.198;20.908;2024-01-15T09:25:20;97649.00;;;4.50
45850;BMP180;10739;52.198;20.908;2024-01-15T09:27:46;97650.00;;;4.40
45850;BMP180;10739;52.198;20.908;2024-01-15T09:30:13;97654.00;;;4.50
45850;BMP180;10739;52.198;20.908;2024-01-15T09:32:39;97650.00;;;4.30
45850;BMP180;10739;52.198;20.908;2024-01-15T09:35:12;97639.00;;;3.80
45850;BMP180;10739;52.198;20.908;2024-01-15T09:37:41;97640.00;;;4.00
45850;BMP180;10739;52.198;20.908;2024-01-15T09:40:13;97653.00;;;4.20
45850;BMP180;10739;52.198;20.908;2024-01-15T09:42:41;97637.00;;;4.30
45850;BMP180;10739;52.198;20.908;2024-01-15T09:45:09;97633.00;;;4.20
45850;BMP180;10739;52.198;20.908;2024-01-15T09:47:37;97644.00;;;4.30
45850;BMP180;10739;52.198;20.908;2024-01-15T09:50:05;97629.00;;;4.50
45850;BMP180;10739;52.198;20.908;2024-01-15T09:52:33;97639.00;;;4.40
45850;BMP180;10739;52.198;20.908;2024-01-15T09:55:03;97635.00;;;4.20
45850;BMP180;10739;52.198;20.908;2024-01-15T09:57:32;97630.00;;;4.10
45850;BMP180;10739;52.198;20.908;2024-01-15T10:00:01;97640.00;;;4.30
45850;BMP180;10739;52.198;20.908;2024-01-15T10:02:31;97628.00;;;4.30
45850;BMP180;10739;52.198;20.908;2024-01-15T10:04:57;97617.00;;;4.10
45850;BMP180;10739;52.198;20.908;2024-01-15T10:07:25;97636.00;;;4.20
45850;BMP180;10739;52.198;20.908;2024-01-15T10:09:51;97627.00;;;4.80
45850;BMP180;10739;52.198;20.908;2024-01-15T10:12:18;97628.00;;;4.30
45850;BMP180;10739;52.198;20.908;2024-01-15T10:14:45;97633.00;;;4.00
45850;BMP180;10739;52.198;20.908;2024-01-15T10:17:15;97638.00;;;4.30
45850;BMP180;10739;52.198;20.908;2024-01-15T10:19:41;97637.00;;;4.20
45850;BMP180;10739;52.198;20.908;2024-01-15T10:22:09;97625.00;;;4.10
45850;BMP180;10739;52.198;20.908;2024-01-15T10:24:40;97630.00;;;4.20
45850;BMP180;10739;52.198;20.908;2024-01-15T10:27:11;97634.00;;;4.30
45850;BMP180;10739;52.198;20.908;2024-01-15T10:29:37;97638.00;;;4.10
45850;BMP180;10739;52.198;20.908;2024-01-15T10:32:08;97630.00;;;4.10
45850;BMP180;10739;52.198;20.908;2024-01-15T10:34:38;97628.00;;;4.10
45850;BMP180;10739;52.198;20.908;2024-01-15T10:37:08;97627.00;;;4.40
45850;BMP180;10739;52.198;20.908;2024-01-15T10:39:35;97633.00;;;4.10
45850;BMP180;10739;52.198;20.908;2024-01-15T10:42:04;97622.00;;;4.00
45850;BMP180;10739;52.198;20.908;2024-01-15T10:44:30;97619.00;;;3.70
45850;BMP180;10739;52.198;20.908;2024-01-15T10:46:57;97626.00;;;4.30
45850;BMP180;10739;52.198;20.908;2024-01-15T10:49:24;97620.00;;;4.50
45850;BMP180;10739;52.198;20.908;2024-01-15T10:51:53;97627.00;;;4.10
45850;BMP180;10739;52.198;20.908;2024-01-15T10:54:20;97636.00;;;4.60
45850;BMP180;10739;52.198;20.908;2024-01-15T10:56:50;97634.00;;;4.00
45850;BMP180;10739;52.198;20.908;2024-01-15T10:59:21;97634.00;;;4.50
45850;BMP180;10739;52.198;20.908;2024-01-15T11:02:05;97629.00;;;4.40
45850;BMP180;10739;52.198;20.908;2024-01-15T11:04:38;97638.00;;;4.50
45850;BMP180;10739;52.198;20.908;2024-01-15T11:07:06;97635.00;;;4.30
45850;BMP180;10739;52.198;20.908;2024-01-15T11:09:32;97636.00;;;4.50
45850;BMP180;10739;52.198;20.908;2024-01-15T11:12:11;97629.00;;;4.70
45850;BMP180;10739;52.198;20.908;2024-01-15T11:14:49;97638.00;;;4.30
45850;BMP180;10739;52.198;20.908;2024-01-15T11:17:17;97624.00;;;4.20
45850;BMP180;10739;52.198;20.908;2024-01-15T11:19:50;97620.00;;;4.30
45850;BMP180;10739;52.198;20.908;2024-01-15T11:24:56;97617.00;;;4.10
45850;BMP180;10739;52.198;20.908;2024-01-15T11:27:46;97607.00;;;4.50
45850;BMP180;10739;52.198;20.908;2024-01-15T11:30:19;97617.00;;;4.40
45850;BMP180;10739;52.198;20.908;2024-01-15T11:32:46;97615.00;;;4.60
45850;BMP180;10739;52.198;20.908;2024-01-15T11:35:14;97613.00;;;4.20
45850;BMP180;10739;52.198;20.908;2024-01-15T11:40:44;97608.00;;;4.50
45850;BMP180;10739;52.198;20.908;2024-01-15T11:43:12;97623.00;;;4.60
45850;BMP180;10739;52.198;20.908;2024-01-15T11:45:41;97623.00;;;4.40
45850;BMP180;10739;52.198;20.908;2024-01-15T11:48:14;97619.00;;;4.30
45850;BMP180;10739;52.198;20.908;2024-01-15T11:50:44;97613.00;;;3.70
45850;BMP180;10739;52.198;20.908;2024-01-15T11:56:06;97610.00;;;3.60
45850;BMP180;10739;52.198;20.908;2024-01-15T11:58:36;97600.00;;;4.00
45850;BMP180;10739;52.198;20.908;2024-01-15T12:01:03;97607.00;;;3.90
45850;BMP180;10739;52.198;20.908;2024-01-15T12:03:32;97603.00;;;3.80
45850;BMP180;10739;52.198;20.908;2024-01-15T12:06:05;97587.00;;;3.90
45850;BMP180;10739;52.198;20.908;2024-01-15T12:08:31;97591.00;;;3.70
45850;BMP180;10739;52.198;20.908;2024-01-15T12:10:57;97600.00;;;3.80
45850;BMP180;10739;52.198;20.908;2024-01-15T12:13:24;97594.00;;;3.90
45850;BMP180;10739;52.198;20.908;2024-01-15T12:15:50;97594.00;;;3.90
45850;BMP180;10739;52.198;20.908;2024-01-15T12:18:18;97599.00;;;3.60
45850;BMP180;10739;52.198;20.908;2024-01-15T12:20:46;97594.00;;;3.60
45850;BMP180;10739;52.198;20.908;2024-01-15T12:23:15;97586.00;;;3.60
45850;BMP180;10739;52.198;20.908;2024-01-15T12:25:43;97591.00;;;3.40
45850;BMP180;10739;52.198;20.908;2024-01-15T12:28:10;97594.00;;;3.10
45850;BMP180;10739;52.198;20.908;2024-01-15T12:30:36;97599.00;;;3.40
45850;BMP180;10739;52.198;20.908;2024-01-15T12:33:04;97590.00;;;3.00
45850;BMP180;10739;52.198;20.908;2024-01-15T12:35:31;97585.00;;;3.00
45850;BMP180;10739;52.198;20.908;2024-01-15T12:38:00;97601.00;;;2.80
45850;BMP180;10739;52.198;20.908;2024-01-15T12:40:28;97584.00;;;2.80
45850;BMP180;10739;52.198;20.908;2024-01-15T12:42:55;97590.00;;;3.00
45850;BMP180;10739;52.198;20.908;2024-01-15T12:45:21;97594.00;;;3.10
45850;BMP180;10739;52.198;20.908;2024-01-15T12:47:48;97585.00;;;3.50
45850;BMP180;10739;52.198;20.908;2024-01-15T12:50:16;97575.00;;;3.30
45850;BMP180;10739;52.198;20.908;2024-01-15T12:52:43;97593.00;;;3.50
45850;BMP180;10739;52.198;20.908;2024-01-15T12:55:10;97584.00;;;3.30
45850;BMP180;10739;52.198;20.908;2024-01-15T12:57:37;97584.00;;;3.30
45850;BMP180;10739;52.198;20.908;2024-01-15T13:00:05;97600.00;;;3.40
45850;BMP180;10739;52.198;20.908;2024-01-15T13:02:39;97590.00;;;3.10
45850;BMP180;10739;52.198;20.908;2024-01-15T13:05:12;97609.00;;;2.80
45850;BMP180;10739;52.198;20.908;2024-01-15T13:07:39;97610.00;;;2.80
45850;BMP180;10739;52.198;20.908;2024-01-15T13:10:06;97617.00;;;2.90
45850;BMP180;10739;52.198;20.908;2024-01-15T13:12:34;97621.00;;;2.90
45850;BMP180;10739;52.198;20.908;2024-01-15T13:15:01;97613.00;;;2.70
45850;BMP180;10739;52.198;20.908;2024-01-15T13:17:29;97621.00;;;2.90
45850;BMP180;10739;52.198;20.908;2024-01-15T13:19:55;97625.00;;;2.50
45850;BMP180;10739;52.198;20.908;2024-01-15T13:22:27;97620.00;;;2.90
45850;BMP180;10739;52.198;20.908;2024-01-15T13:24:58;97621.00;;;3.00
45850;BMP180;10739;52.198;20.908;2024-01-15T13:27:24;97615.00;;;3.10
45850;BMP180;10739;52.198;20.908;2024-01-15T13:29:51;97609.00;;;3.10
45850;BMP180;10739;52.198;20.908;2024-01-15T13:32:25;97606.00;;;2.80
45850;BMP180;10739;52.198;20.908;2024-01-15T13:34:52;97596.00;;;2.80
45850;BMP180;10739;52.198;20.908;2024-01-15T13:37:18;97600.00;;;3.10
45850;BMP180;10739;52.198;20.908;2024-01-15T13:39:44;97606.00;;;3.30
45850;BMP180;10739;52.198;20.908;2024-01-15T13:42:11;97601.00;;;3.20
45850;BMP180;10739;52.198;20.908;2024-01-15T13:44:38;97606.00;;;3.10
45850;BMP180;10739;52.198;20.908;2024-01-15T13:47:04;97604.00;;;3.00
45850;BMP180;10739;52.198;20.908;2024-01-15T13:49:31;97595.00;;;3.20
45850;BMP180;10739;52.198;20.908;2024-01-15T13:51:59;97597.00;;;3.30
45850;BMP180;10739;52.198;20.908;2024-01-15T13:54:26;97593.00;;;3.30
45850;BMP180;10739;52.198;20.908;2024-01-15T13:56:52;97605.00;;;3.00
45850;BMP180;10739;52.198;20.908;2024-01-15T13:59:19;97603.00;;;3.10
45850;BMP180;10739;52.198;20.908;2024-01-15T14:01:45;97605.00;;;3.10
45850;BMP180;10739;52.198;20.908;2024-01-15T14:04:14;97598.00;;;3.20
45850;BMP180;10739;52.198;20.908;2024-01-15T14:06:41;97616.00;;;3.10
45850;BMP180;10739;52.198;20.908;2024-01-15T14:09:07;97609.00;;;3.00
45850;BMP180;10739;52.198;20.908;2024-01-15T14:11:37;97609.00;;;2.90
45850;BMP180;10739;52.198;20.908;2024-01-15T14:14:03;97606.00;;;3.10
45850;BMP180;10739;52.198;20.908;2024-01-15T14:16:30;97610.00;;;3.40
45850;BMP180;10739;52.198;20.908;2024-01-15T14:18:56;97605.00;;;3.10